createdAt,value
2023-02-16T00:02:30.624Z,78.55
2023-02-16T00:05:25.081Z,77.90
2023-02-16T00:08:11.514Z,80.78
2023-02-16T00:11:17.064Z,76.40
2023-02-16T00:14:04.756Z,76.80
2023-02-16T00:16:51.645Z,78.05
2023-02-16T00:19:40.359Z,81.30
2023-02-16T00:22:27.059Z,80.28
2023-02-16T00:25:13.676Z,85.20
2023-02-16T00:28:02.667Z,84.43
2023-02-16T00:30:50.156Z,87.15
2023-02-16T00:33:36.957Z,85.95
2023-02-16T00:36:23.336Z,82.55
2023-02-16T00:39:09.747Z,86.65
2023-02-16T00:41:59.102Z,84.03
2023-02-16T00:44:49.688Z,81.82
2023-02-16T00:47:38.255Z,83.15
2023-02-16T00:50:27.365Z,91.88
2023-02-16T00:53:14.390Z,77.30
2023-02-16T00:56:00.835Z,80.38
2023-02-16T00:58:48.403Z,85.07
2023-02-16T01:01:37.269Z,78.25
2023-02-16T01:04:24.919Z,87.00
2023-02-16T01:07:30.686Z,78.30
2023-02-16T01:10:36.041Z,83.00
2023-02-16T01:13:23.579Z,84.95
2023-02-16T01:16:15.588Z,82.68
2023-02-16T01:19:03.814Z,77.47
2023-02-16T01:21:50.143Z,82.75
2023-02-16T01:24:36.774Z,81.93
2023-02-16T01:27:23.263Z,87.63
2023-02-16T01:30:15.021Z,80.20
2023-02-16T01:33:03.065Z,84.10
2023-02-16T01:35:51.758Z,92.78
2023-02-16T01:38:38.256Z,88.60
2023-02-16T01:41:38.451Z,82.60
2023-02-16T01:44:28.306Z,86.18
2023-02-16T01:47:27.225Z,87.40
2023-02-16T01:50:18.732Z,92.50
2023-02-16T01:53:17.053Z,76.45
2023-02-16T01:56:06.847Z,87.22
2023-02-16T01:58:57.542Z,91.60
2023-02-16T02:01:49.186Z,84.70
2023-02-16T02:04:59.044Z,79.10
2023-02-16T02:07:50.843Z,78.90
2023-02-16T02:10:46.707Z,83.82
2023-02-16T02:13:39.175Z,81.15
2023-02-16T02:16:28.656Z,75.07
2023-02-16T02:19:15.336Z,81.53
2023-02-16T02:22:55.628Z,78.88
2023-02-16T02:26:25.900Z,78.43
2023-02-16T02:29:29.666Z,81.73
2023-02-16T02:32:29.047Z,82.68
2023-02-16T02:35:30.463Z,78.43
2023-02-16T02:38:26.500Z,88.75
2023-02-16T02:41:22.928Z,82.90
2023-02-16T02:44:10.994Z,78.40
2023-02-16T02:46:58.687Z,73.68
2023-02-16T02:49:50.992Z,75.10
2023-02-16T02:52:37.503Z,76.80
2023-02-16T02:55:41.957Z,78.10
2023-02-16T02:58:49.768Z,76.15
2023-02-16T03:01:38.838Z,83.22
2023-02-16T03:04:30.243Z,85.15
2023-02-16T03:07:18.232Z,76.03
2023-02-16T03:10:18.889Z,83.00
2023-02-16T03:13:09.105Z,77.90
2023-02-16T03:15:58.082Z,75.28
2023-02-16T03:19:05.445Z,77.78
2023-02-16T03:22:12.127Z,75.03
2023-02-16T03:25:16.728Z,82.38
2023-02-16T03:28:25.673Z,76.63
2023-02-16T03:31:16.070Z,73.80
2023-02-16T03:34:03.461Z,84.55
2023-02-16T03:36:58.394Z,76.18
2023-02-16T03:40:02.669Z,73.80
2023-02-16T03:42:51.117Z,76.97
2023-02-16T03:45:40.546Z,74.85
2023-02-16T03:48:27.058Z,76.07
2023-02-16T03:51:13.658Z,79.57
2023-02-16T03:54:02.215Z,75.28
2023-02-16T03:56:48.463Z,82.85
2023-02-16T03:59:34.905Z,78.18
2023-02-16T04:02:22.021Z,74.15
2023-02-16T04:05:09.150Z,80.32
2023-02-16T04:07:55.486Z,76.13
2023-02-16T04:10:43.407Z,80.85
2023-02-16T04:13:29.166Z,73.97
2023-02-16T04:16:15.867Z,79.75
2023-02-16T04:19:02.403Z,75.45
2023-02-16T04:21:48.854Z,73.22
2023-02-16T04:24:35.377Z,71.68
2023-02-16T04:27:23.398Z,76.63
2023-02-16T04:30:13.605Z,83.22
2023-02-16T04:33:00.231Z,80.30
2023-02-16T04:35:46.700Z,79.50
2023-02-16T04:38:33.302Z,76.68
2023-02-16T04:41:19.948Z,81.25
2023-02-16T04:44:07.920Z,75.10
2023-02-16T04:46:54.840Z,74.50
2023-02-16T04:49:41.812Z,77.95
2023-02-16T04:52:28.539Z,77.07
2023-02-16T04:55:15.214Z,81.45
2023-02-16T04:58:01.848Z,78.22
2023-02-16T05:00:49.641Z,76.00
2023-02-16T05:03:36.434Z,76.70
2023-02-16T05:06:23.573Z,79.05
2023-02-16T05:09:10.269Z,75.03
2023-02-16T05:12:14.430Z,84.05
2023-02-16T05:15:01.101Z,84.30
2023-02-16T05:17:48.939Z,72.93
2023-02-16T05:20:53.178Z,86.72
2023-02-16T05:23:39.681Z,82.72
2023-02-16T05:26:26.522Z,79.55
2023-02-16T05:29:12.841Z,81.40
2023-02-16T05:31:59.605Z,80.70
2023-02-16T05:34:48.132Z,79.28
2023-02-16T05:37:34.552Z,82.90
2023-02-16T05:40:21.240Z,84.97
2023-02-16T05:43:07.686Z,85.68
2023-02-16T05:45:54.298Z,83.28
2023-02-16T05:48:40.685Z,82.93
2023-02-16T05:51:29.111Z,84.63
2023-02-16T05:54:17.971Z,78.32
2023-02-16T05:57:04.821Z,86.50
2023-02-16T05:59:51.096Z,76.95
2023-02-16T06:02:37.936Z,83.97
2023-02-16T06:05:24.432Z,83.80
2023-02-16T06:08:12.332Z,86.53
2023-02-16T06:10:59.297Z,85.40
2023-02-16T06:13:45.844Z,89.10
2023-02-16T06:16:33.618Z,85.70
2023-02-16T06:19:21.328Z,91.03
2023-02-16T06:22:07.596Z,82.72
2023-02-16T06:24:55.491Z,100.75
2023-02-16T06:27:42.238Z,83.70
2023-02-16T06:30:29.265Z,91.55
2023-02-16T06:33:16.031Z,82.70
2023-02-16T06:36:03.063Z,84.28
2023-02-16T06:38:50.128Z,82.55
2023-02-16T06:41:40.445Z,80.63
2023-02-16T06:44:27.222Z,79.15
2023-02-16T06:47:13.911Z,89.78
2023-02-16T06:50:00.565Z,75.55
2023-02-16T06:52:47.198Z,84.63
2023-02-16T06:55:36.677Z,86.03
2023-02-16T06:58:24.718Z,78.20
2023-02-16T07:01:12.037Z,84.65
2023-02-16T07:03:59.072Z,82.55
2023-02-16T07:06:45.702Z,83.45
2023-02-16T07:09:32.258Z,87.57
2023-02-16T07:12:18.970Z,81.60
2023-02-16T07:15:07.879Z,86.53
2023-02-16T07:17:54.649Z,79.60
2023-02-16T07:20:41.966Z,84.18
2023-02-16T07:23:28.638Z,96.72
2023-02-16T07:26:15.662Z,88.75
2023-02-16T07:29:02.619Z,80.53
2023-02-16T07:31:51.422Z,91.35
2023-02-16T07:34:38.331Z,85.53
2023-02-16T07:37:25.155Z,91.10
2023-02-16T07:40:13.422Z,83.60
2023-02-16T07:43:01.150Z,86.68
2023-02-16T07:45:47.633Z,83.85
2023-02-16T07:48:35.870Z,78.18
2023-02-16T07:51:23.740Z,83.18
2023-02-16T07:54:10.601Z,82.55
2023-02-16T07:56:57.049Z,84.45
2023-02-16T07:59:43.875Z,86.50
2023-02-16T08:02:30.305Z,82.35
2023-02-16T08:05:18.525Z,75.72
2023-02-16T08:08:05.466Z,73.40
2023-02-16T08:10:52.238Z,69.85
2023-02-16T08:13:39.070Z,75.40
2023-02-16T08:16:28.020Z,78.18
2023-02-16T08:19:14.381Z,80.55
2023-02-16T08:22:03.345Z,75.75
2023-02-16T08:24:50.018Z,73.95
2023-02-16T08:27:36.779Z,76.50
2023-02-16T08:30:24.937Z,74.90
2023-02-16T08:33:11.661Z,71.78
2023-02-16T08:35:58.143Z,70.97
2023-02-16T08:38:45.945Z,70.75
2023-02-16T08:41:35.322Z,79.40
2023-02-16T08:44:24.232Z,70.78
2023-02-16T08:47:10.917Z,81.13
2023-02-16T08:49:57.521Z,77.85
2023-02-16T08:52:45.635Z,83.43
2023-02-16T08:55:33.262Z,73.47
2023-02-16T08:58:19.855Z,75.40
2023-02-16T09:01:08.235Z,75.10
2023-02-16T09:03:55.509Z,85.05
2023-02-16T09:06:44.135Z,80.78
2023-02-16T09:09:30.574Z,85.03
2023-02-16T09:12:18.575Z,82.88
2023-02-16T09:15:05.826Z,92.00
2023-02-16T09:17:52.312Z,91.70
2023-02-16T09:20:40.022Z,87.22
2023-02-16T09:23:27.233Z,97.10
2023-02-16T09:26:15.305Z,84.50
2023-02-16T09:29:03.591Z,95.43
2023-02-16T09:31:50.112Z,104.22
2023-02-16T09:34:38.222Z,100.82
2023-02-16T09:37:24.784Z,101.15
2023-02-16T09:40:14.289Z,101.10
2023-02-16T09:43:09.690Z,88.43
2023-02-16T09:45:59.406Z,95.35
2023-02-16T09:48:49.346Z,94.57
2023-02-16T09:51:40.967Z,90.35
2023-02-16T09:54:36.223Z,108.60
2023-02-16T09:57:46.401Z,104.25
2023-02-16T10:00:45.412Z,93.15
2023-02-16T10:03:53.778Z,100.53
2023-02-16T10:06:54.013Z,93.72
2023-02-16T10:09:43.469Z,96.90
2023-02-16T10:12:34.448Z,93.32
2023-02-16T10:15:24.714Z,98.85
2023-02-16T10:18:22.071Z,100.60
2023-02-16T10:21:17.710Z,92.68
2023-02-16T10:24:07.709Z,101.20
2023-02-16T10:27:03.590Z,98.57
2023-02-16T10:29:50.143Z,91.88
2023-02-16T10:32:43.968Z,101.82
2023-02-16T10:35:42.822Z,87.47
2023-02-16T10:38:38.354Z,104.38
2023-02-16T10:41:33.840Z,94.50
2023-02-16T10:44:24.032Z,92.20
2023-02-16T10:47:22.592Z,95.82
2023-02-16T10:50:21.167Z,96.60
2023-02-16T10:53:14.679Z,90.97
2023-02-16T10:56:02.462Z,81.85
2023-02-16T10:58:49.085Z,84.22
2023-02-16T11:01:39.513Z,83.85
2023-02-16T11:04:36.595Z,82.03
2023-02-16T11:07:25.829Z,77.55
2023-02-16T11:10:21.491Z,83.60
2023-02-16T11:13:22.131Z,79.65
2023-02-16T11:16:14.202Z,85.82
2023-02-16T11:19:05.940Z,77.32
2023-02-16T11:21:55.234Z,74.55
2023-02-16T11:24:41.752Z,78.97
2023-02-16T11:27:29.830Z,73.55
2023-02-16T11:30:23.604Z,73.85
2023-02-16T11:33:23.402Z,79.32
2023-02-16T11:36:21.896Z,74.45
2023-02-16T11:39:18.379Z,79.80
2023-02-16T11:42:08.040Z,78.88
2023-02-16T11:44:56.322Z,81.28
2023-02-16T11:47:44.289Z,77.22
2023-02-16T11:50:33.486Z,81.15
2023-02-16T11:53:26.712Z,75.50
2023-02-16T11:56:22.866Z,77.85
2023-02-16T11:59:19.060Z,80.53
2023-02-16T12:02:29.299Z,76.93
2023-02-16T12:05:39.349Z,75.13
2023-02-16T12:08:36.750Z,77.60
2023-02-16T12:11:32.682Z,70.68
2023-02-16T12:14:36.472Z,70.45
2023-02-16T12:17:34.534Z,62.13
2023-02-16T12:20:37.914Z,72.53
2023-02-16T12:23:33.864Z,69.22
2023-02-16T12:26:40.509Z,70.38
2023-02-16T12:29:41.401Z,64.13
2023-02-16T12:32:42.719Z,71.72
2023-02-16T12:36:01.192Z,69.10
2023-02-16T12:39:00.398Z,65.07
2023-02-16T12:41:57.398Z,63.33
2023-02-16T12:44:49.002Z,65.35
2023-02-16T12:47:38.975Z,65.60
2023-02-16T12:50:28.275Z,61.55
2023-02-16T12:53:26.839Z,60.40
2023-02-16T12:56:18.549Z,62.78
2023-02-16T12:59:18.503Z,61.72
2023-02-16T13:02:15.898Z,53.00
2023-02-16T13:05:10.157Z,60.97
2023-02-16T13:08:03.415Z,54.95
2023-02-16T13:10:59.555Z,55.35
2023-02-16T13:13:48.870Z,47.13
2023-02-16T13:16:43.667Z,51.47
2023-02-16T13:19:30.237Z,47.08
2023-02-16T13:22:42.430Z,52.47
2023-02-16T13:25:42.453Z,51.30
2023-02-16T13:28:46.906Z,44.40
2023-02-16T13:31:47.348Z,42.90
2023-02-16T13:35:18.280Z,44.90
2023-02-16T13:41:32.301Z,40.80
2023-02-16T13:44:21.931Z,44.45
2023-02-16T13:47:14.025Z,42.28
2023-02-16T13:50:02.887Z,41.40
2023-02-16T13:52:50.787Z,41.15
2023-02-16T13:55:40.140Z,38.05
2023-02-16T13:58:34.059Z,40.08
2023-02-16T14:01:42.965Z,36.78
2023-02-16T14:05:05.309Z,37.63
2023-02-16T14:08:10.947Z,41.42
2023-02-16T14:11:12.030Z,44.33
2023-02-16T14:13:58.705Z,37.85
2023-02-16T14:16:46.667Z,36.90
2023-02-16T14:19:33.930Z,39.22
2023-02-16T14:22:23.006Z,38.97
2023-02-16T14:25:37.916Z,36.10
2023-02-16T14:29:07.633Z,34.13
2023-02-16T14:32:00.380Z,34.75
2023-02-16T14:34:53.689Z,38.53
2023-02-16T14:37:45.435Z,32.65
2023-02-16T14:40:51.873Z,30.77
2023-02-16T14:43:42.424Z,27.02
2023-02-16T14:46:45.071Z,31.35
2023-02-16T14:50:03.759Z,30.15
2023-02-16T14:53:27.438Z,31.10
2023-02-16T14:56:28.410Z,31.48
2023-02-16T14:59:29.172Z,31.80
2023-02-16T15:02:28.292Z,31.35
2023-02-16T15:05:18.797Z,30.58
2023-02-16T15:08:11.067Z,32.80
2023-02-16T15:10:58.030Z,29.90
2023-02-16T15:13:45.672Z,31.20
2023-02-16T15:16:33.590Z,27.58
2023-02-16T15:19:29.423Z,31.92
2023-02-16T15:22:22.572Z,32.40
2023-02-16T15:25:23.432Z,30.90
2023-02-16T15:28:21.877Z,30.58
2023-02-16T15:31:18.096Z,37.25
2023-02-16T15:34:07.530Z,36.13
2023-02-16T15:36:54.076Z,38.95
2023-02-16T15:39:53.495Z,39.08
2023-02-16T15:42:45.280Z,39.10
2023-02-16T15:45:35.230Z,38.85
2023-02-16T15:48:29.322Z,40.33
2023-02-16T15:51:19.476Z,43.25
2023-02-16T15:54:08.892Z,42.85
2023-02-16T15:56:59.584Z,37.72
2023-02-16T15:59:48.607Z,44.10
2023-02-16T16:02:39.382Z,44.78
2023-02-16T16:05:29.659Z,57.60
2023-02-16T16:08:18.272Z,48.78
2023-02-16T16:11:05.974Z,46.83
2023-02-16T16:13:54.551Z,49.13
2023-02-16T16:16:41.833Z,47.88
2023-02-16T16:19:34.324Z,49.47
2023-02-16T16:22:34.312Z,48.60
2023-02-16T16:25:37.760Z,48.80
2023-02-16T16:28:37.869Z,53.47
2023-02-16T16:31:40.881Z,58.63
2023-02-16T16:34:36.843Z,57.45
2023-02-16T16:37:28.389Z,53.17
2023-02-16T16:40:23.789Z,53.95
2023-02-16T16:43:18.317Z,55.35
2023-02-16T16:46:14.736Z,60.72
2023-02-16T16:49:04.459Z,61.22
2023-02-16T16:51:53.669Z,59.78
2023-02-16T16:54:40.579Z,63.13
2023-02-16T16:57:27.211Z,65.72
2023-02-16T17:00:15.777Z,61.17
2023-02-16T17:03:04.223Z,62.05
2023-02-16T17:05:51.885Z,65.03
2023-02-16T17:08:38.616Z,66.05
2023-02-16T17:11:27.479Z,61.28
2023-02-16T17:14:18.396Z,72.43
2023-02-16T17:17:06.092Z,74.07
2023-02-16T17:19:52.713Z,76.70
2023-02-16T17:22:40.604Z,81.00
2023-02-16T17:25:27.335Z,79.75
2023-02-16T17:28:15.477Z,84.50
2023-02-16T17:31:01.812Z,79.40
2023-02-16T17:33:48.350Z,79.35
2023-02-16T17:36:36.003Z,84.43
2023-02-16T17:39:23.870Z,81.35
2023-02-16T17:42:12.456Z,82.18
2023-02-16T17:44:59.105Z,95.25
2023-02-16T17:47:46.409Z,86.75
2023-02-16T17:50:33.044Z,92.43
2023-02-16T17:53:21.563Z,96.25
2023-02-16T17:56:12.137Z,95.15
2023-02-16T18:01:44.959Z,94.40
2023-02-16T18:04:31.720Z,99.88
2023-02-16T18:07:19.152Z,107.13
2023-02-16T18:10:07.061Z,99.60
2023-02-16T18:12:54.903Z,100.15
2023-02-16T18:15:45.265Z,105.47
2023-02-16T18:21:21.464Z,97.68
2023-02-16T18:24:08.273Z,101.03
2023-02-16T18:26:55.642Z,109.13
2023-02-16T18:29:43.731Z,105.18
2023-02-16T18:32:30.196Z,97.65
2023-02-16T18:35:18.414Z,100.20
2023-02-16T18:38:05.009Z,99.80
2023-02-16T18:40:52.902Z,102.35
2023-02-16T18:43:39.696Z,102.53
2023-02-16T18:46:27.707Z,104.10
2023-02-16T18:49:14.489Z,105.53
2023-02-16T18:52:01.051Z,105.72
2023-02-16T18:54:47.631Z,109.88
2023-02-16T18:57:34.466Z,96.57
2023-02-16T19:00:21.821Z,97.55
2023-02-16T19:03:10.254Z,101.03
2023-02-16T19:05:56.735Z,96.97
2023-02-16T19:08:43.297Z,107.70
2023-02-16T19:11:30.767Z,89.40
2023-02-16T19:14:18.600Z,90.28
2023-02-16T19:17:05.176Z,87.88
2023-02-16T19:19:53.234Z,91.78
2023-02-16T19:22:39.974Z,90.93
2023-02-16T19:25:27.129Z,99.38
2023-02-16T19:28:13.251Z,101.30
2023-02-16T19:31:01.956Z,91.45
2023-02-16T19:33:49.596Z,84.05
2023-02-16T19:36:37.542Z,80.88
2023-02-16T19:39:24.109Z,81.38
2023-02-16T19:42:10.796Z,77.28
2023-02-16T19:45:00.458Z,82.72
2023-02-16T19:47:47.090Z,83.10
2023-02-16T19:50:33.631Z,88.60
2023-02-16T19:53:21.617Z,80.20
2023-02-16T19:56:10.603Z,81.13
2023-02-16T19:58:58.290Z,69.82
2023-02-16T20:01:44.618Z,79.80
2023-02-16T20:04:31.213Z,66.55
2023-02-16T20:07:17.684Z,70.63
2023-02-16T20:10:06.475Z,62.58
2023-02-16T20:12:52.872Z,63.80
2023-02-16T20:15:39.683Z,70.47
2023-02-16T20:18:26.406Z,78.15
2023-02-16T20:21:15.139Z,67.97
2023-02-16T20:24:04.591Z,62.28
2023-02-16T20:26:53.016Z,60.67
2023-02-16T20:29:39.753Z,67.63
2023-02-16T20:32:26.953Z,65.68
2023-02-16T20:35:13.869Z,62.40
2023-02-16T20:38:00.596Z,63.40
2023-02-16T20:40:47.505Z,64.25
2023-02-16T20:43:36.131Z,57.95
2023-02-16T20:46:23.942Z,59.67
2023-02-16T20:49:10.692Z,55.50
2023-02-16T20:51:57.200Z,58.65
2023-02-16T20:54:44.139Z,56.05
2023-02-16T20:57:30.826Z,58.60
2023-02-16T21:00:21.726Z,54.47
2023-02-16T21:03:08.407Z,56.70
2023-02-16T21:05:55.278Z,52.47
2023-02-16T21:08:41.643Z,52.10
2023-02-16T21:11:28.207Z,54.88
2023-02-16T21:14:14.814Z,49.25
2023-02-16T21:17:02.691Z,48.95
2023-02-16T21:19:49.668Z,47.05
2023-02-16T21:22:36.028Z,46.90
2023-02-16T21:25:22.437Z,41.42
2023-02-16T21:28:08.964Z,41.92
2023-02-16T21:30:55.574Z,42.60
2023-02-16T21:33:43.613Z,39.53
2023-02-16T21:36:29.996Z,40.58
2023-02-16T21:39:16.735Z,39.10
2023-02-16T21:42:02.196Z,37.22
2023-02-16T21:44:50.038Z,31.58
2023-02-16T21:47:54.712Z,35.92
2023-02-16T21:50:43.175Z,31.90
2023-02-16T21:53:30.628Z,28.70
2023-02-16T21:56:27.139Z,29.13
2023-02-16T21:59:15.335Z,27.88
2023-02-16T22:02:01.931Z,25.25
2023-02-16T22:04:49.638Z,26.50
2023-02-16T22:07:37.497Z,25.17
2023-02-16T22:10:24.137Z,25.52
2023-02-16T22:13:11.039Z,26.88
2023-02-16T22:15:57.382Z,23.33
2023-02-16T22:18:44.318Z,22.25
2023-02-16T22:21:31.809Z,21.52
2023-02-16T22:24:21.120Z,23.65
2023-02-16T22:27:07.786Z,23.05
2023-02-16T22:29:54.272Z,27.70
2023-02-16T22:32:41.047Z,27.05
2023-02-16T22:35:27.534Z,24.95
2023-02-16T22:38:14.057Z,28.27
2023-02-16T22:41:05.403Z,24.40
2023-02-16T22:43:53.930Z,28.30
2023-02-16T22:46:40.672Z,30.08
2023-02-16T22:49:27.259Z,28.85
2023-02-16T22:52:13.863Z,26.55
2023-02-16T22:55:00.335Z,26.40
2023-02-16T22:57:48.830Z,26.75
2023-02-16T23:03:46.822Z,27.08
2023-02-16T23:06:36.508Z,25.83
2023-02-16T23:09:23.617Z,27.42
2023-02-16T23:12:10.624Z,27.35
2023-02-16T23:14:58.483Z,27.02
2023-02-16T23:17:45.184Z,26.45
2023-02-16T23:20:31.630Z,29.10
2023-02-16T23:23:18.084Z,30.33
2023-02-16T23:26:07.206Z,33.72
2023-02-16T23:28:56.007Z,36.30
2023-02-16T23:31:46.667Z,35.78
2023-02-16T23:34:33.495Z,33.55
2023-02-16T23:37:19.994Z,32.60
2023-02-16T23:40:08.287Z,36.13
2023-02-16T23:42:54.674Z,38.40
2023-02-16T23:45:41.300Z,37.58
2023-02-16T23:48:30.497Z,42.35
2023-02-16T23:51:17.436Z,40.03
2023-02-16T23:54:04.157Z,39.08
2023-02-16T23:56:52.785Z,39.65
2023-02-16T23:59:39.635Z,40.17
